Cassadaga, Florida
Current Conditions -  °F | °C
As of 12:53 PM on Friday 19 Dec 2014 (Local Time) from KSFB Reporting Station
Clear Clear  
Wind Chill: 68°   Ceiling: Unl
Heat Index: 68°   Visibility: 10mi
Dew Point: 44°   Wind: 3mph
Humidity: 42%   Direction: 20°NNE
Pressure: 30.1"   Gusts: NA
Location:  28.97°N, 81.24°W
Report Text: KSFB 191753Z 02003KT 10SM CLR 20/07 A3010 RMK AO2 SLP191 T02000067 10200 20100 58022
Loading
Personal Weather Stations






























Interactive Weather Map New forecast layout! Learn more

10-Day Weather Forecast

Advertisements
Track Severe Weather on mobile